sensor_id;sensor_type;location;lat;lon;timestamp;temperature;humidity
49549;DHT22;35450;44.518;7.466;2023-02-01T00:00:32;6.20;78.20
49549;DHT22;35450;44.518;7.466;2023-02-01T00:03:38;6.30;78.30
49549;DHT22;35450;44.518;7.466;2023-02-01T00:06:42;6.40;78.00
49549;DHT22;35450;44.518;7.466;2023-02-01T00:09:46;6.40;78.00
49549;DHT22;35450;44.518;7.466;2023-02-01T00:12:50;6.50;77.70
49549;DHT22;35450;44.518;7.466;2023-02-01T00:15:54;6.50;77.70
49549;DHT22;35450;44.518;7.466;2023-02-01T00:19:06;6.50;77.50
49549;DHT22;35450;44.518;7.466;2023-02-01T00:22:10;6.50;77.50
49549;DHT22;35450;44.518;7.466;2023-02-01T00:25:14;6.60;77.50
49549;DHT22;35450;44.518;7.466;2023-02-01T00:28:19;6.60;77.20
49549;DHT22;35450;44.518;7.466;2023-02-01T00:31:23;6.60;77.00
49549;DHT22;35450;44.518;7.466;2023-02-01T00:34:27;6.70;76.90
49549;DHT22;35450;44.518;7.466;2023-02-01T00:37:31;6.70;76.70
49549;DHT22;35450;44.518;7.466;2023-02-01T00:40:35;6.60;76.70
49549;DHT22;35450;44.518;7.466;2023-02-01T00:43:39;6.60;76.90
49549;DHT22;35450;44.518;7.466;2023-02-01T00:46:44;6.60;77.30
49549;DHT22;35450;44.518;7.466;2023-02-01T00:49:47;6.50;77.80
49549;DHT22;35450;44.518;7.466;2023-02-01T00:52:51;6.40;78.00
49549;DHT22;35450;44.518;7.466;2023-02-01T00:55:55;6.10;79.10
49549;DHT22;35450;44.518;7.466;2023-02-01T00:59:00;6.20;79.00
49549;DHT22;35450;44.518;7.466;2023-02-01T01:02:04;6.30;78.80
49549;DHT22;35450;44.518;7.466;2023-02-01T01:05:07;6.30;78.90
49549;DHT22;35450;44.518;7.466;2023-02-01T01:08:12;6.20;79.20
49549;DHT22;35450;44.518;7.466;2023-02-01T01:11:19;6.20;79.10
49549;DHT22;35450;44.518;7.466;2023-02-01T01:14:23;6.20;78.80
49549;DHT22;35450;44.518;7.466;2023-02-01T01:17:31;6.20;78.90
49549;DHT22;35450;44.518;7.466;2023-02-01T01:20:37;6.20;78.90
49549;DHT22;35450;44.518;7.466;2023-02-01T01:23:43;6.10;78.90
49549;DHT22;35450;44.518;7.466;2023-02-01T01:26:47;6.10;79.70
49549;DHT22;35450;44.518;7.466;2023-02-01T01:29:51;6.10;78.90
49549;DHT22;35450;44.518;7.466;2023-02-01T01:32:55;6.10;79.10
49549;DHT22;35450;44.518;7.466;2023-02-01T01:35:59;6.20;78.70
49549;DHT22;35450;44.518;7.466;2023-02-01T01:39:04;6.20;78.50
49549;DHT22;35450;44.518;7.466;2023-02-01T01:42:11;6.20;78.60
49549;DHT22;35450;44.518;7.466;2023-02-01T01:45:30;6.30;78.60
49549;DHT22;35450;44.518;7.466;2023-02-01T01:48:34;6.30;78.10
49549;DHT22;35450;44.518;7.466;2023-02-01T01:51:53;6.40;78.30
49549;DHT22;35450;44.518;7.466;2023-02-01T01:54:59;6.50;78.40
49549;DHT22;35450;44.518;7.466;2023-02-01T01:58:09;6.40;79.00
49549;DHT22;35450;44.518;7.466;2023-02-01T02:01:15;6.40;79.30
49549;DHT22;35450;44.518;7.466;2023-02-01T02:04:19;6.30;79.20
49549;DHT22;35450;44.518;7.466;2023-02-01T02:07:30;6.30;78.40
49549;DHT22;35450;44.518;7.466;2023-02-01T02:10:36;6.30;78.80
49549;DHT22;35450;44.518;7.466;2023-02-01T02:14:00;6.40;78.60
49549;DHT22;35450;44.518;7.466;2023-02-01T02:17:12;6.40;78.20
49549;DHT22;35450;44.518;7.466;2023-02-01T02:43:23;6.40;78.90
49549;DHT22;35450;44.518;7.466;2023-02-01T02:46:50;6.50;79.20
49549;DHT22;35450;44.518;7.466;2023-02-01T02:54:15;6.50;78.30
49549;DHT22;35450;44.518;7.466;2023-02-01T02:57:41;6.50;78.70
49549;DHT22;35450;44.518;7.466;2023-02-01T03:01:05;6.50;78.80
49549;DHT22;35450;44.518;7.466;2023-02-01T03:04:28;6.60;78.90
49549;DHT22;35450;44.518;7.466;2023-02-01T03:11:12;6.50;79.10
49549;DHT22;35450;44.518;7.466;2023-02-01T03:14:18;6.50;79.30
49549;DHT22;35450;44.518;7.466;2023-02-01T03:17:30;6.50;80.70
49549;DHT22;35450;44.518;7.466;2023-02-01T03:20:40;6.40;79.60
49549;DHT22;35450;44.518;7.466;2023-02-01T03:23:47;6.50;78.90
49549;DHT22;35450;44.518;7.466;2023-02-01T03:27:00;6.50;78.80
49549;DHT22;35450;44.518;7.466;2023-02-01T03:30:25;6.40;78.10
49549;DHT22;35450;44.518;7.466;2023-02-01T03:33:30;6.50;78.60
49549;DHT22;35450;44.518;7.466;2023-02-01T03:36:49;6.50;78.30
49549;DHT22;35450;44.518;7.466;2023-02-01T03:40:01;6.50;79.20
49549;DHT22;35450;44.518;7.466;2023-02-01T03:43:12;6.40;79.70
49549;DHT22;35450;44.518;7.466;2023-02-01T03:46:31;6.40;79.30
49549;DHT22;35450;44.518;7.466;2023-02-01T03:49:41;6.40;78.70
49549;DHT22;35450;44.518;7.466;2023-02-01T03:56:04;6.40;78.50
49549;DHT22;35450;44.518;7.466;2023-02-01T03:59:08;6.50;79.10
49549;DHT22;35450;44.518;7.466;2023-02-01T04:02:13;6.40;78.70
49549;DHT22;35450;44.518;7.466;2023-02-01T04:05:17;6.30;79.10
49549;DHT22;35450;44.518;7.466;2023-02-01T04:08:29;6.30;80.50
49549;DHT22;35450;44.518;7.466;2023-02-01T04:11:33;6.20;80.90
49549;DHT22;35450;44.518;7.466;2023-02-01T04:14:37;6.30;80.90
49549;DHT22;35450;44.518;7.466;2023-02-01T04:17:41;6.20;80.90
49549;DHT22;35450;44.518;7.466;2023-02-01T04:20:45;6.10;81.10
49549;DHT22;35450;44.518;7.466;2023-02-01T04:23:49;5.90;82.00
49549;DHT22;35450;44.518;7.466;2023-02-01T04:26:54;6.00;82.50
49549;DHT22;35450;44.518;7.466;2023-02-01T04:29:58;6.00;82.50
49549;DHT22;35450;44.518;7.466;2023-02-01T04:33:02;5.70;82.70
49549;DHT22;35450;44.518;7.466;2023-02-01T04:36:09;5.60;82.80
49549;DHT22;35450;44.518;7.466;2023-02-01T04:39:13;5.80;83.30
49549;DHT22;35450;44.518;7.466;2023-02-01T04:42:16;5.80;82.70
49549;DHT22;35450;44.518;7.466;2023-02-01T04:45:21;5.80;82.10
49549;DHT22;35450;44.518;7.466;2023-02-01T04:48:25;5.80;82.30
49549;DHT22;35450;44.518;7.466;2023-02-01T04:51:29;5.70;82.50
49549;DHT22;35450;44.518;7.466;2023-02-01T04:54:34;5.80;82.10
49549;DHT22;35450;44.518;7.466;2023-02-01T04:57:38;5.70;81.90
49549;DHT22;35450;44.518;7.466;2023-02-01T05:00:43;5.80;82.00
49549;DHT22;35450;44.518;7.466;2023-02-01T05:03:48;5.70;81.70
49549;DHT22;35450;44.518;7.466;2023-02-01T05:06:52;5.60;81.90
49549;DHT22;35450;44.518;7.466;2023-02-01T05:09:56;5.70;82.10
49549;DHT22;35450;44.518;7.466;2023-02-01T05:13:00;5.70;81.20
49549;DHT22;35450;44.518;7.466;2023-02-01T05:16:22;5.70;81.30
49549;DHT22;35450;44.518;7.466;2023-02-01T05:19:26;5.70;81.30
49549;DHT22;35450;44.518;7.466;2023-02-01T05:22:30;5.80;81.00
49549;DHT22;35450;44.518;7.466;2023-02-01T05:25:34;5.90;80.80
49549;DHT22;35450;44.518;7.466;2023-02-01T05:28:38;5.90;80.50
49549;DHT22;35450;44.518;7.466;2023-02-01T05:31:44;5.90;80.40
49549;DHT22;35450;44.518;7.466;2023-02-01T05:34:48;6.00;80.30
49549;DHT22;35450;44.518;7.466;2023-02-01T05:37:52;6.00;80.40
49549;DHT22;35450;44.518;7.466;2023-02-01T05:40:56;6.00;80.60
49549;DHT22;35450;44.518;7.466;2023-02-01T05:44:00;6.00;80.80
49549;DHT22;35450;44.518;7.466;2023-02-01T05:47:04;6.00;81.10
49549;DHT22;35450;44.518;7.466;2023-02-01T05:50:09;6.00;81.10
49549;DHT22;35450;44.518;7.466;2023-02-01T05:53:13;6.10;81.10
49549;DHT22;35450;44.518;7.466;2023-02-01T05:56:18;6.10;81.00
49549;DHT22;35450;44.518;7.466;2023-02-01T05:59:22;6.10;80.80
49549;DHT22;35450;44.518;7.466;2023-02-01T06:02:25;6.20;80.60
49549;DHT22;35450;44.518;7.466;2023-02-01T06:05:29;6.20;80.60
49549;DHT22;35450;44.518;7.466;2023-02-01T06:08:33;6.20;80.90
49549;DHT22;35450;44.518;7.466;2023-02-01T06:11:39;6.20;81.20
49549;DHT22;35450;44.518;7.466;2023-02-01T06:14:43;6.00;81.60
49549;DHT22;35450;44.518;7.466;2023-02-01T06:17:48;5.80;82.20
49549;DHT22;35450;44.518;7.466;2023-02-01T06:20:57;5.50;82.90
49549;DHT22;35450;44.518;7.466;2023-02-01T06:24:03;5.40;83.70
49549;DHT22;35450;44.518;7.466;2023-02-01T06:27:08;5.60;83.50
49549;DHT22;35450;44.518;7.466;2023-02-01T06:30:13;5.50;83.50
49549;DHT22;35450;44.518;7.466;2023-02-01T06:33:17;5.40;83.90
49549;DHT22;35450;44.518;7.466;2023-02-01T06:36:21;5.30;84.40
49549;DHT22;35450;44.518;7.466;2023-02-01T06:39:25;5.50;84.20
49549;DHT22;35450;44.518;7.466;2023-02-01T06:42:31;5.50;84.10
49549;DHT22;35450;44.518;7.466;2023-02-01T06:45:35;5.30;84.60
49549;DHT22;35450;44.518;7.466;2023-02-01T06:48:39;5.30;84.50
49549;DHT22;35450;44.518;7.466;2023-02-01T06:51:43;5.40;84.50
49549;DHT22;35450;44.518;7.466;2023-02-01T06:54:47;5.20;85.30
49549;DHT22;35450;44.518;7.466;2023-02-01T06:57:55;5.30;85.00
49549;DHT22;35450;44.518;7.466;2023-02-01T07:01:06;5.30;84.70
49549;DHT22;35450;44.518;7.466;2023-02-01T07:04:11;5.30;84.50
49549;DHT22;35450;44.518;7.466;2023-02-01T07:07:16;5.30;84.70
49549;DHT22;35450;44.518;7.466;2023-02-01T07:10:20;5.20;84.70
49549;DHT22;35450;44.518;7.466;2023-02-01T07:13:25;5.20;84.70
49549;DHT22;35450;44.518;7.466;2023-02-01T07:16:28;5.20;84.80
49549;DHT22;35450;44.518;7.466;2023-02-01T07:19:33;5.20;85.10
49549;DHT22;35450;44.518;7.466;2023-02-01T07:22:37;5.00;85.30
49549;DHT22;35450;44.518;7.466;2023-02-01T07:25:41;5.10;85.40
49549;DHT22;35450;44.518;7.466;2023-02-01T07:28:45;5.10;84.80
49549;DHT22;35450;44.518;7.466;2023-02-01T07:31:50;5.10;84.90
49549;DHT22;35450;44.518;7.466;2023-02-01T07:34:54;5.20;84.70
49549;DHT22;35450;44.518;7.466;2023-02-01T07:37:58;5.20;84.20
49549;DHT22;35450;44.518;7.466;2023-02-01T07:41:04;5.20;83.40
49549;DHT22;35450;44.518;7.466;2023-02-01T07:44:08;5.30;83.40
49549;DHT22;35450;44.518;7.466;2023-02-01T07:47:12;5.30;82.70
49549;DHT22;35450;44.518;7.466;2023-02-01T07:50:16;5.40;83.00
49549;DHT22;35450;44.518;7.466;2023-02-01T07:53:20;5.50;82.50
49549;DHT22;35450;44.518;7.466;2023-02-01T07:56:24;5.50;82.50
49549;DHT22;35450;44.518;7.466;2023-02-01T07:59:29;5.60;81.90
49549;DHT22;35450;44.518;7.466;2023-02-01T08:02:33;5.60;81.20
49549;DHT22;35450;44.518;7.466;2023-02-01T08:05:37;5.70;81.50
49549;DHT22;35450;44.518;7.466;2023-02-01T08:08:41;5.70;83.10
49549;DHT22;35450;44.518;7.466;2023-02-01T08:11:46;5.90;83.10
49549;DHT22;35450;44.518;7.466;2023-02-01T08:14:51;5.90;83.10
49549;DHT22;35450;44.518;7.466;2023-02-01T08:17:56;6.00;83.00
49549;DHT22;35450;44.518;7.466;2023-02-01T08:21:24;5.90;85.20
49549;DHT22;35450;44.518;7.466;2023-02-01T08:24:28;6.00;83.10
49549;DHT22;35450;44.518;7.466;2023-02-01T08:27:33;6.10;80.90
49549;DHT22;35450;44.518;7.466;2023-02-01T08:30:38;6.20;80.40
49549;DHT22;35450;44.518;7.466;2023-02-01T08:33:43;6.40;80.00
49549;DHT22;35450;44.518;7.466;2023-02-01T08:36:47;6.40;79.80
49549;DHT22;35450;44.518;7.466;2023-02-01T08:39:51;6.50;79.80
49549;DHT22;35450;44.518;7.466;2023-02-01T08:42:56;6.60;80.20
49549;DHT22;35450;44.518;7.466;2023-02-01T08:46:01;6.70;80.30
49549;DHT22;35450;44.518;7.466;2023-02-01T08:49:05;6.70;79.90
49549;DHT22;35450;44.518;7.466;2023-02-01T08:52:09;6.80;79.50
49549;DHT22;35450;44.518;7.466;2023-02-01T08:55:14;6.80;79.30
49549;DHT22;35450;44.518;7.466;2023-02-01T08:58:18;6.90;78.90
49549;DHT22;35450;44.518;7.466;2023-02-01T09:01:23;7.00;78.30
49549;DHT22;35450;44.518;7.466;2023-02-01T09:04:27;7.00;78.20
49549;DHT22;35450;44.518;7.466;2023-02-01T09:07:32;7.00;77.90
49549;DHT22;35450;44.518;7.466;2023-02-01T09:10:36;7.10;77.20
49549;DHT22;35450;44.518;7.466;2023-02-01T09:13:40;7.20;76.70
49549;DHT22;35450;44.518;7.466;2023-02-01T09:16:45;7.30;76.90
49549;DHT22;35450;44.518;7.466;2023-02-01T09:19:49;7.30;76.90
49549;DHT22;35450;44.518;7.466;2023-02-01T09:22:55;7.40;76.60
49549;DHT22;35450;44.518;7.466;2023-02-01T09:26:00;7.50;76.40
49549;DHT22;35450;44.518;7.466;2023-02-01T09:29:05;7.50;76.40
49549;DHT22;35450;44.518;7.466;2023-02-01T09:32:15;7.60;76.10
49549;DHT22;35450;44.518;7.466;2023-02-01T09:35:20;7.60;77.30
49549;DHT22;35450;44.518;7.466;2023-02-01T09:38:24;7.70;77.60
49549;DHT22;35450;44.518;7.466;2023-02-01T09:45:20;7.80;77.40
49549;DHT22;35450;44.518;7.466;2023-02-01T09:48:32;7.80;78.90
49549;DHT22;35450;44.518;7.466;2023-02-01T09:51:39;7.80;79.50
49549;DHT22;35450;44.518;7.466;2023-02-01T09:54:54;7.80;79.50
49549;DHT22;35450;44.518;7.466;2023-02-01T09:58:16;7.80;79.40
49549;DHT22;35450;44.518;7.466;2023-02-01T10:01:25;7.80;79.50
49549;DHT22;35450;44.518;7.466;2023-02-01T10:04:30;7.90;79.90
49549;DHT22;35450;44.518;7.466;2023-02-01T10:07:43;7.90;80.80
49549;DHT22;35450;44.518;7.466;2023-02-01T10:10:50;8.00;80.50
49549;DHT22;35450;44.518;7.466;2023-02-01T10:14:02;8.00;80.20
49549;DHT22;35450;44.518;7.466;2023-02-01T10:20:24;8.00;78.30
49549;DHT22;35450;44.518;7.466;2023-02-01T10:30:25;8.00;75.50
49549;DHT22;35450;44.518;7.466;2023-02-01T10:33:36;8.10;75.60
49549;DHT22;35450;44.518;7.466;2023-02-01T10:40:25;8.30;79.50
49549;DHT22;35450;44.518;7.466;2023-02-01T10:43:30;8.30;79.00
49549;DHT22;35450;44.518;7.466;2023-02-01T10:46:35;8.30;77.30
49549;DHT22;35450;44.518;7.466;2023-02-01T10:49:47;8.30;77.00
49549;DHT22;35450;44.518;7.466;2023-02-01T10:53:13;8.40;76.90
49549;DHT22;35450;44.518;7.466;2023-02-01T10:56:26;8.40;77.00
49549;DHT22;35450;44.518;7.466;2023-02-01T10:59:30;8.40;77.30
49549;DHT22;35450;44.518;7.466;2023-02-01T11:02:37;8.40;76.30
49549;DHT22;35450;44.518;7.466;2023-02-01T11:05:45;8.50;75.40
49549;DHT22;35450;44.518;7.466;2023-02-01T11:08:52;8.50;74.70
49549;DHT22;35450;44.518;7.466;2023-02-01T11:12:00;8.50;73.80
49549;DHT22;35450;44.518;7.466;2023-02-01T11:15:20;8.60;73.30
49549;DHT22;35450;44.518;7.466;2023-02-01T11:18:29;8.60;73.10
49549;DHT22;35450;44.518;7.466;2023-02-01T11:21:34;8.60;73.30
49549;DHT22;35450;44.518;7.466;2023-02-01T11:24:39;8.70;73.90
49549;DHT22;35450;44.518;7.466;2023-02-01T11:27:45;8.80;74.70
49549;DHT22;35450;44.518;7.466;2023-02-01T11:30:49;8.90;76.80
49549;DHT22;35450;44.518;7.466;2023-02-01T11:34:00;8.90;74.40
49549;DHT22;35450;44.518;7.466;2023-02-01T11:37:19;9.00;75.70
49549;DHT22;35450;44.518;7.466;2023-02-01T11:40:38;9.10;76.10
49549;DHT22;35450;44.518;7.466;2023-02-01T11:47:19;9.30;75.50
49549;DHT22;35450;44.518;7.466;2023-02-01T11:57:48;9.40;77.90
49549;DHT22;35450;44.518;7.466;2023-02-01T12:01:22;9.50;76.60
49549;DHT22;35450;44.518;7.466;2023-02-01T12:04:56;9.60;77.00
49549;DHT22;35450;44.518;7.466;2023-02-01T12:08:26;9.60;76.00
49549;DHT22;35450;44.518;7.466;2023-02-01T12:19:03;9.80;76.10
49549;DHT22;35450;44.518;7.466;2023-02-01T12:29:20;9.80;75.00
49549;DHT22;35450;44.518;7.466;2023-02-01T12:36:12;9.90;77.00
49549;DHT22;35450;44.518;7.466;2023-02-01T12:42:41;9.90;77.00
49549;DHT22;35450;44.518;7.466;2023-02-01T12:49:11;9.90;76.10
49549;DHT22;35450;44.518;7.466;2023-02-01T12:52:30;9.90;75.90
49549;DHT22;35450;44.518;7.466;2023-02-01T12:55:43;9.80;75.40
49549;DHT22;35450;44.518;7.466;2023-02-01T12:58:55;9.80;75.80
49549;DHT22;35450;44.518;7.466;2023-02-01T13:02:27;9.80;76.30
49549;DHT22;35450;44.518;7.466;2023-02-01T13:05:46;9.80;76.10
49549;DHT22;35450;44.518;7.466;2023-02-01T13:08:56;9.80;75.80
49549;DHT22;35450;44.518;7.466;2023-02-01T13:12:15;9.80;75.50
49549;DHT22;35450;44.518;7.466;2023-02-01T13:15:41;9.80;75.50
49549;DHT22;35450;44.518;7.466;2023-02-01T13:18:49;9.80;75.50
49549;DHT22;35450;44.518;7.466;2023-02-01T13:22:00;9.90;75.00
49549;DHT22;35450;44.518;7.466;2023-02-01T13:28:23;10.00;74.10
49549;DHT22;35450;44.518;7.466;2023-02-01T13:35:09;10.10;71.30
49549;DHT22;35450;44.518;7.466;2023-02-01T13:41:40;10.20;74.10
49549;DHT22;35450;44.518;7.466;2023-02-01T13:44:59;10.30;74.40
49549;DHT22;35450;44.518;7.466;2023-02-01T13:48:06;10.30;73.40
49549;DHT22;35450;44.518;7.466;2023-02-01T13:51:12;10.40;72.80
49549;DHT22;35450;44.518;7.466;2023-02-01T13:54:36;10.40;72.10
49549;DHT22;35450;44.518;7.466;2023-02-01T13:57:42;10.40;71.90
49549;DHT22;35450;44.518;7.466;2023-02-01T14:00:50;10.50;71.80
49549;DHT22;35450;44.518;7.466;2023-02-01T14:03:57;10.50;72.60
49549;DHT22;35450;44.518;7.466;2023-02-01T14:07:02;10.50;71.10
49549;DHT22;35450;44.518;7.466;2023-02-01T14:13:47;10.60;71.30
49549;DHT22;35450;44.518;7.466;2023-02-01T14:23:42;10.70;70.10
49549;DHT22;35450;44.518;7.466;2023-02-01T14:26:49;10.70;70.40
49549;DHT22;35450;44.518;7.466;2023-02-01T14:29:59;10.70;70.30
49549;DHT22;35450;44.518;7.466;2023-02-01T14:33:34;10.80;70.30
49549;DHT22;35450;44.518;7.466;2023-02-01T14:36:44;10.80;70.30
49549;DHT22;35450;44.518;7.466;2023-02-01T14:42:56;10.90;69.50
49549;DHT22;35450;44.518;7.466;2023-02-01T14:46:00;11.00;69.00
49549;DHT22;35450;44.518;7.466;2023-02-01T14:49:05;11.10;68.30
49549;DHT22;35450;44.518;7.466;2023-02-01T14:52:14;11.20;68.20
49549;DHT22;35450;44.518;7.466;2023-02-01T14:55:45;11.20;67.60
49549;DHT22;35450;44.518;7.466;2023-02-01T14:59:17;11.30;67.30
49549;DHT22;35450;44.518;7.466;2023-02-01T15:02:26;11.40;66.70
49549;DHT22;35450;44.518;7.466;2023-02-01T15:05:33;11.40;66.60
49549;DHT22;35450;44.518;7.466;2023-02-01T15:08:39;11.50;67.00
49549;DHT22;35450;44.518;7.466;2023-02-01T15:18:16;11.70;67.60
49549;DHT22;35450;44.518;7.466;2023-02-01T15:21:24;11.80;67.80
49549;DHT22;35450;44.518;7.466;2023-02-01T15:24:30;11.70;67.30
49549;DHT22;35450;44.518;7.466;2023-02-01T15:27:34;11.70;67.20
49549;DHT22;35450;44.518;7.466;2023-02-01T15:30:38;11.70;67.70
49549;DHT22;35450;44.518;7.466;2023-02-01T15:33:56;11.80;68.20
49549;DHT22;35450;44.518;7.466;2023-02-01T15:37:04;11.80;70.10
49549;DHT22;35450;44.518;7.466;2023-02-01T15:43:13;11.70;69.60
49549;DHT22;35450;44.518;7.466;2023-02-01T15:46:21;11.60;70.00
49549;DHT22;35450;44.518;7.466;2023-02-01T15:49:31;11.40;72.30
49549;DHT22;35450;44.518;7.466;2023-02-01T15:52:39;11.20;73.70
49549;DHT22;35450;44.518;7.466;2023-02-01T15:55:43;11.10;73.90
49549;DHT22;35450;44.518;7.466;2023-02-01T15:58:56;10.90;74.20
49549;DHT22;35450;44.518;7.466;2023-02-01T16:02:00;10.80;74.60
49549;DHT22;35450;44.518;7.466;2023-02-01T16:08:32;10.60;74.60
49549;DHT22;35450;44.518;7.466;2023-02-01T16:15:01;10.40;74.50
49549;DHT22;35450;44.518;7.466;2023-02-01T16:18:06;10.30;74.30
49549;DHT22;35450;44.518;7.466;2023-02-01T16:21:12;10.30;74.50
49549;DHT22;35450;44.518;7.466;2023-02-01T16:24:18;10.20;74.00
49549;DHT22;35450;44.518;7.466;2023-02-01T16:27:22;10.20;73.90
49549;DHT22;35450;44.518;7.466;2023-02-01T16:30:26;10.10;73.90
49549;DHT22;35450;44.518;7.466;2023-02-01T16:33:31;10.10;73.90
49549;DHT22;35450;44.518;7.466;2023-02-01T16:36:35;10.00;74.00
49549;DHT22;35450;44.518;7.466;2023-02-01T16:39:39;10.10;74.20
49549;DHT22;35450;44.518;7.466;2023-02-01T16:42:44;10.00;74.60
49549;DHT22;35450;44.518;7.466;2023-02-01T16:45:51;9.90;74.90
49549;DHT22;35450;44.518;7.466;2023-02-01T16:48:58;9.80;74.50
49549;DHT22;35450;44.518;7.466;2023-02-01T16:52:02;9.80;74.20
49549;DHT22;35450;44.518;7.466;2023-02-01T16:55:15;9.70;74.40
49549;DHT22;35450;44.518;7.466;2023-02-01T16:58:21;9.70;74.30
49549;DHT22;35450;44.518;7.466;2023-02-01T17:01:25;9.70;74.70
49549;DHT22;35450;44.518;7.466;2023-02-01T17:04:29;9.50;74.50
49549;DHT22;35450;44.518;7.466;2023-02-01T17:07:33;9.50;75.10
49549;DHT22;35450;44.518;7.466;2023-02-01T17:10:38;9.50;74.20
49549;DHT22;35450;44.518;7.466;2023-02-01T17:13:42;9.50;74.00
49549;DHT22;35450;44.518;7.466;2023-02-01T17:16:48;9.50;74.50
49549;DHT22;35450;44.518;7.466;2023-02-01T17:19:52;9.40;74.30
49549;DHT22;35450;44.518;7.466;2023-02-01T17:22:57;9.40;74.50
49549;DHT22;35450;44.518;7.466;2023-02-01T17:26:01;9.30;74.70
49549;DHT22;35450;44.518;7.466;2023-02-01T17:29:06;9.10;75.30
49549;DHT22;35450;44.518;7.466;2023-02-01T17:32:16;9.00;76.30
49549;DHT22;35450;44.518;7.466;2023-02-01T17:35:24;9.00;76.40
49549;DHT22;35450;44.518;7.466;2023-02-01T17:38:29;9.00;76.30
49549;DHT22;35450;44.518;7.466;2023-02-01T17:41:33;8.90;76.20
49549;DHT22;35450;44.518;7.466;2023-02-01T17:44:38;9.00;75.70
49549;DHT22;35450;44.518;7.466;2023-02-01T17:47:42;8.90;75.10
49549;DHT22;35450;44.518;7.466;2023-02-01T17:50:48;9.00;75.40
49549;DHT22;35450;44.518;7.466;2023-02-01T17:54:01;9.00;75.30
49549;DHT22;35450;44.518;7.466;2023-02-01T17:57:11;8.90;75.50
49549;DHT22;35450;44.518;7.466;2023-02-01T18:00:16;8.80;75.80
49549;DHT22;35450;44.518;7.466;2023-02-01T18:03:24;8.80;76.50
49549;DHT22;35450;44.518;7.466;2023-02-01T18:06:32;8.80;76.10
49549;DHT22;35450;44.518;7.466;2023-02-01T18:09:37;8.80;76.60
49549;DHT22;35450;44.518;7.466;2023-02-01T18:12:41;8.80;77.00
49549;DHT22;35450;44.518;7.466;2023-02-01T18:15:45;8.80;76.90
49549;DHT22;35450;44.518;7.466;2023-02-01T18:18:49;8.50;76.90
49549;DHT22;35450;44.518;7.466;2023-02-01T18:21:54;8.60;77.30
49549;DHT22;35450;44.518;7.466;2023-02-01T18:25:00;8.50;77.50
49549;DHT22;35450;44.518;7.466;2023-02-01T18:28:04;8.50;77.40
49549;DHT22;35450;44.518;7.466;2023-02-01T18:34:24;8.40;77.30
49549;DHT22;35450;44.518;7.466;2023-02-01T18:37:30;8.40;78.10
49549;DHT22;35450;44.518;7.466;2023-02-01T18:43:51;8.20;77.80
49549;DHT22;35450;44.518;7.466;2023-02-01T18:46:55;8.30;77.70
49549;DHT22;35450;44.518;7.466;2023-02-01T18:50:00;8.30;77.70
49549;DHT22;35450;44.518;7.466;2023-02-01T18:53:06;8.30;78.20
49549;DHT22;35450;44.518;7.466;2023-02-01T18:56:12;8.20;78.90
49549;DHT22;35450;44.518;7.466;2023-02-01T18:59:17;8.10;79.20
49549;DHT22;35450;44.518;7.466;2023-02-01T19:02:21;8.10;78.70
49549;DHT22;35450;44.518;7.466;2023-02-01T19:05:25;8.10;79.10
49549;DHT22;35450;44.518;7.466;2023-02-01T19:08:29;8.10;78.90
49549;DHT22;35450;44.518;7.466;2023-02-01T19:11:33;8.10;78.90
49549;DHT22;35450;44.518;7.466;2023-02-01T19:14:37;8.10;78.80
49549;DHT22;35450;44.518;7.466;2023-02-01T19:17:46;8.10;78.80
49549;DHT22;35450;44.518;7.466;2023-02-01T19:20:50;7.90;78.70
49549;DHT22;35450;44.518;7.466;2023-02-01T19:23:57;8.00;78.10
49549;DHT22;35450;44.518;7.466;2023-02-01T19:27:01;7.90;77.40
49549;DHT22;35450;44.518;7.466;2023-02-01T19:30:05;8.00;77.00
49549;DHT22;35450;44.518;7.466;2023-02-01T19:33:10;8.00;76.50
49549;DHT22;35450;44.518;7.466;2023-02-01T19:36:14;8.00;76.50
49549;DHT22;35450;44.518;7.466;2023-02-01T19:39:18;7.90;76.20
49549;DHT22;35450;44.518;7.466;2023-02-01T19:42:26;7.90;76.40
49549;DHT22;35450;44.518;7.466;2023-02-01T19:45:30;7.90;76.40
49549;DHT22;35450;44.518;7.466;2023-02-01T19:48:34;7.80;76.50
49549;DHT22;35450;44.518;7.466;2023-02-01T19:51:38;7.90;75.30
49549;DHT22;35450;44.518;7.466;2023-02-01T19:54:44;8.00;74.10
49549;DHT22;35450;44.518;7.466;2023-02-01T19:57:48;8.00;74.20
49549;DHT22;35450;44.518;7.466;2023-02-01T20:00:56;8.10;73.30
49549;DHT22;35450;44.518;7.466;2023-02-01T20:04:00;8.10;72.40
49549;DHT22;35450;44.518;7.466;2023-02-01T20:07:08;8.10;72.30
49549;DHT22;35450;44.518;7.466;2023-02-01T20:10:14;8.10;71.60
49549;DHT22;35450;44.518;7.466;2023-02-01T20:13:18;8.10;72.60
49549;DHT22;35450;44.518;7.466;2023-02-01T20:16:23;8.00;72.60
49549;DHT22;35450;44.518;7.466;2023-02-01T20:19:27;8.00;72.70
49549;DHT22;35450;44.518;7.466;2023-02-01T20:22:31;8.00;72.60
49549;DHT22;35450;44.518;7.466;2023-02-01T20:25:35;8.00;72.50
49549;DHT22;35450;44.518;7.466;2023-02-01T20:28:40;7.90;71.60
49549;DHT22;35450;44.518;7.466;2023-02-01T20:31:44;7.80;72.40
49549;DHT22;35450;44.518;7.466;2023-02-01T20:34:49;7.80;72.40
49549;DHT22;35450;44.518;7.466;2023-02-01T20:37:55;7.90;73.10
49549;DHT22;35450;44.518;7.466;2023-02-01T20:41:06;7.70;73.90
49549;DHT22;35450;44.518;7.466;2023-02-01T20:44:10;7.60;74.10
49549;DHT22;35450;44.518;7.466;2023-02-01T20:47:14;7.40;74.40
49549;DHT22;35450;44.518;7.466;2023-02-01T20:50:18;7.40;74.00
49549;DHT22;35450;44.518;7.466;2023-02-01T20:53:23;7.60;72.80
49549;DHT22;35450;44.518;7.466;2023-02-01T20:56:27;7.60;73.10
49549;DHT22;35450;44.518;7.466;2023-02-01T20:59:31;7.50;70.90
49549;DHT22;35450;44.518;7.466;2023-02-01T21:02:35;7.50;72.00
49549;DHT22;35450;44.518;7.466;2023-02-01T21:05:40;7.50;71.90
49549;DHT22;35450;44.518;7.466;2023-02-01T21:08:48;7.60;71.80
49549;DHT22;35450;44.518;7.466;2023-02-01T21:11:52;7.50;72.10
49549;DHT22;35450;44.518;7.466;2023-02-01T21:14:55;7.50;72.90
49549;DHT22;35450;44.518;7.466;2023-02-01T21:18:04;7.40;73.50
49549;DHT22;35450;44.518;7.466;2023-02-01T21:21:10;7.40;73.00
49549;DHT22;35450;44.518;7.466;2023-02-01T21:24:15;7.50;72.90
49549;DHT22;35450;44.518;7.466;2023-02-01T21:27:18;7.50;73.10
49549;DHT22;35450;44.518;7.466;2023-02-01T21:30:23;7.50;73.40
49549;DHT22;35450;44.518;7.466;2023-02-01T21:33:27;7.50;74.10
49549;DHT22;35450;44.518;7.466;2023-02-01T21:36:32;7.50;74.90
49549;DHT22;35450;44.518;7.466;2023-02-01T21:39:39;7.40;75.40
49549;DHT22;35450;44.518;7.466;2023-02-01T21:42:43;7.20;75.90
49549;DHT22;35450;44.518;7.466;2023-02-01T21:45:48;7.30;76.30
49549;DHT22;35450;44.518;7.466;2023-02-01T21:48:52;7.30;76.80
49549;DHT22;35450;44.518;7.466;2023-02-01T21:51:56;7.30;77.10
49549;DHT22;35450;44.518;7.466;2023-02-01T21:55:00;7.30;77.50
49549;DHT22;35450;44.518;7.466;2023-02-01T21:58:04;7.20;77.80
49549;DHT22;35450;44.518;7.466;2023-02-01T22:01:15;7.10;78.30
49549;DHT22;35450;44.518;7.466;2023-02-01T22:04:19;6.90;78.80
49549;DHT22;35450;44.518;7.466;2023-02-01T22:07:23;7.00;78.70
49549;DHT22;35450;44.518;7.466;2023-02-01T22:10:27;7.00;78.70
49549;DHT22;35450;44.518;7.466;2023-02-01T22:13:31;7.00;78.90